createdAt,value
2022-09-01T00:00:33.495Z,0.80
2022-09-01T00:05:37.238Z,1.12
2022-09-01T00:10:41.684Z,0.65
2022-09-01T00:15:46.781Z,1.35
2022-09-01T00:20:50.492Z,0.80
2022-09-01T00:25:54.710Z,1.00
2022-09-01T00:30:59.940Z,1.00
2022-09-01T00:36:05.466Z,1.00
2022-09-01T00:41:10.041Z,1.30
2022-09-01T00:46:18.397Z,1.10
2022-09-01T00:51:24.825Z,1.10
2022-09-01T00:56:30.456Z,0.70
2022-09-01T01:01:36.788Z,1.00
2022-09-01T01:06:41.079Z,1.10
2022-09-01T01:11:46.455Z,0.93
2022-09-01T01:16:52.361Z,0.95
2022-09-01T01:22:15.645Z,0.80
2022-09-01T01:27:21.907Z,1.02
2022-09-01T01:32:26.504Z,0.90
2022-09-01T01:37:31.035Z,1.45
2022-09-01T01:42:37.929Z,1.00
2022-09-01T01:47:42.338Z,0.88
2022-09-01T01:52:46.054Z,1.15
2022-09-01T01:57:51.432Z,1.17
2022-09-01T02:02:57.254Z,1.75
2022-09-01T02:08:04.723Z,1.20
2022-09-01T02:13:16.152Z,0.90
2022-09-01T02:18:23.806Z,1.12
2022-09-01T02:23:30.082Z,1.00
2022-09-01T02:28:40.090Z,1.30
2022-09-01T02:33:45.665Z,1.30
2022-09-01T02:38:53.299Z,1.30
2022-09-01T02:44:02.224Z,1.40
2022-09-01T02:49:08.595Z,1.10
2022-09-01T02:54:15.460Z,1.33
2022-09-01T02:59:21.948Z,1.52
2022-09-01T03:04:27.222Z,1.30
2022-09-01T03:09:32.663Z,1.30
2022-09-01T03:14:37.789Z,1.52
2022-09-01T03:19:42.498Z,1.40
2022-09-01T03:24:46.180Z,1.30
2022-09-01T03:29:51.375Z,1.58
2022-09-01T03:34:55.155Z,1.55
2022-09-01T03:39:58.975Z,1.50
2022-09-01T03:45:09.028Z,1.48
2022-09-01T03:50:20.324Z,1.50
2022-09-01T03:55:27.360Z,1.62
2022-09-01T04:00:35.899Z,1.80
2022-09-01T04:05:44.117Z,2.08
2022-09-01T04:10:54.404Z,1.73
2022-09-01T04:16:00.464Z,1.50
2022-09-01T04:21:07.223Z,1.52
2022-09-01T04:26:14.849Z,1.42
2022-09-01T04:31:22.363Z,1.57
2022-09-01T04:36:28.623Z,2.00
2022-09-01T04:41:33.879Z,1.80
2022-09-01T04:46:42.488Z,1.77
2022-09-01T04:51:53.120Z,1.92
2022-09-01T04:56:57.650Z,2.05
2022-09-01T05:02:07.775Z,1.95
2022-09-01T05:07:14.204Z,1.60
2022-09-01T05:12:23.191Z,1.55
2022-09-01T05:17:29.143Z,2.15
2022-09-01T05:22:33.638Z,2.22
2022-09-01T05:27:49.461Z,2.12
2022-09-01T05:32:55.083Z,1.98
2022-09-01T05:37:59.988Z,1.30
2022-09-01T05:43:04.486Z,2.30
2022-09-01T05:48:10.187Z,1.65
2022-09-01T05:53:17.215Z,1.75
2022-09-01T05:58:26.679Z,1.70
2022-09-01T06:03:33.312Z,1.70
2022-09-01T06:08:46.820Z,1.73
2022-09-01T06:13:55.206Z,1.50
2022-09-01T06:19:01.087Z,1.70
2022-09-01T06:24:07.287Z,1.58
2022-09-01T06:29:15.492Z,2.62
2022-09-01T06:34:21.687Z,2.20
2022-09-01T06:39:26.583Z,2.12
2022-09-01T06:44:32.202Z,1.85
2022-09-01T06:49:41.139Z,2.25
2022-09-01T06:54:45.218Z,2.37
2022-09-01T06:59:49.258Z,2.92
2022-09-01T07:04:58.079Z,2.08
2022-09-01T07:10:22.650Z,2.05
2022-09-01T07:16:31.901Z,2.05
2022-09-01T07:21:38.893Z,2.17
2022-09-01T07:26:26.964Z,2.45
2022-09-01T07:32:41.111Z,2.03
2022-09-01T07:38:47.314Z,2.95
2022-09-01T07:48:03.187Z,2.72
2022-09-01T07:53:11.148Z,2.10
2022-09-01T07:58:15.817Z,1.95
2022-09-01T08:03:24.195Z,2.28
2022-09-01T08:08:29.753Z,2.05
2022-09-01T08:13:40.699Z,2.17
2022-09-01T08:18:48.806Z,2.45
2022-09-01T08:23:58.251Z,2.67
2022-09-01T08:29:02.289Z,2.10
2022-09-01T08:34:06.726Z,2.08
2022-09-01T08:39:12.138Z,2.10
2022-09-01T08:44:28.497Z,2.12
2022-09-01T08:49:42.929Z,2.83
2022-09-01T08:54:52.003Z,2.22
2022-09-01T08:59:56.781Z,2.75
2022-09-01T09:05:21.632Z,2.15
2022-09-01T09:10:33.164Z,2.20
2022-09-01T09:15:42.818Z,1.98
2022-09-01T09:20:46.899Z,2.30
2022-09-01T09:25:52.081Z,2.20
2022-09-01T09:31:26.612Z,1.87
2022-09-01T09:36:33.856Z,2.00
2022-09-01T09:41:40.205Z,1.70
2022-09-01T09:46:47.651Z,1.25
2022-09-01T09:51:53.892Z,1.30
2022-09-01T09:57:13.315Z,1.50
2022-09-01T10:02:31.334Z,1.48
2022-09-01T10:07:37.344Z,2.03
2022-09-01T10:12:42.570Z,1.15
2022-09-01T10:17:49.362Z,1.10
2022-09-01T10:22:54.158Z,1.27
2022-09-01T10:28:05.597Z,1.15
2022-09-01T10:33:19.176Z,1.25
2022-09-01T10:38:27.790Z,0.98
2022-09-01T10:43:41.066Z,1.10
2022-09-01T10:48:48.624Z,0.93
2022-09-01T10:54:02.214Z,0.90
2022-09-01T11:05:10.816Z,1.33
2022-09-01T11:10:44.569Z,1.12
2022-09-01T11:15:50.085Z,1.20
2022-09-01T11:20:55.563Z,1.25
2022-09-01T11:36:39.011Z,0.93
2022-09-01T11:41:57.449Z,0.88
2022-09-01T11:47:13.648Z,1.10
2022-09-01T11:52:19.617Z,0.95
2022-09-01T11:57:29.570Z,1.10
2022-09-01T12:02:37.339Z,0.80
2022-09-01T12:07:45.879Z,0.75
2022-09-01T12:12:49.636Z,1.12
2022-09-01T12:17:55.239Z,1.30
2022-09-01T12:23:02.300Z,0.93
2022-09-01T12:28:06.912Z,0.93
2022-09-01T12:33:24.186Z,1.30
2022-09-01T12:38:31.971Z,1.02
2022-09-01T12:43:38.893Z,0.70
2022-09-01T12:48:44.753Z,0.82
2022-09-01T12:53:53.974Z,0.90
2022-09-01T12:59:14.245Z,0.90
2022-09-01T13:04:30.975Z,0.80
2022-09-01T13:09:35.334Z,0.62
2022-09-01T13:14:39.105Z,0.95
2022-09-01T13:19:44.289Z,0.70
2022-09-01T13:24:48.766Z,1.00
2022-09-01T13:29:53.392Z,0.57
2022-09-01T13:34:58.697Z,0.60
2022-09-01T13:40:02.741Z,0.82
2022-09-01T13:45:07.533Z,0.70
2022-09-01T13:50:19.939Z,0.70
2022-09-01T13:55:29.085Z,0.70
2022-09-01T14:00:36.050Z,0.95
2022-09-01T14:05:44.961Z,0.52
2022-09-01T14:10:52.927Z,0.57
2022-09-01T14:15:56.729Z,0.80
2022-09-01T14:21:02.326Z,0.60
2022-09-01T14:26:09.984Z,0.60
2022-09-01T14:31:15.409Z,0.80
2022-09-01T14:36:22.839Z,0.70
2022-09-01T14:41:27.085Z,1.12
2022-09-01T14:46:34.387Z,1.08
2022-09-01T15:02:29.423Z,1.05
2022-09-01T15:07:34.636Z,1.08
2022-09-01T15:12:39.941Z,1.00
2022-09-01T15:17:46.430Z,0.80
2022-09-01T15:22:52.065Z,0.70
2022-09-01T15:27:55.868Z,0.70
2022-09-01T15:32:59.623Z,0.68
2022-09-01T15:38:05.378Z,0.70
2022-09-01T15:43:11.609Z,0.80
2022-09-01T15:48:15.833Z,0.73
2022-09-01T15:53:21.275Z,0.80
2022-09-01T15:58:30.433Z,0.88
2022-09-01T16:03:43.106Z,0.75
2022-09-01T16:08:48.280Z,0.90
2022-09-01T16:13:53.920Z,1.00
2022-09-01T16:19:02.289Z,1.10
2022-09-01T16:24:10.625Z,1.00
2022-09-01T16:29:20.487Z,1.15
2022-09-01T16:34:28.303Z,1.75
2022-09-01T16:39:40.563Z,0.95
2022-09-01T16:44:56.412Z,1.00
2022-09-01T16:50:08.934Z,1.12
2022-09-01T16:55:31.132Z,0.93
2022-09-01T17:00:43.705Z,1.00
2022-09-01T17:05:55.553Z,1.48
2022-09-01T17:11:09.649Z,3.33
2022-09-01T17:16:22.151Z,1.27
2022-09-01T17:21:33.231Z,1.08
2022-09-01T17:26:40.212Z,1.02
2022-09-01T17:31:59.844Z,1.12
2022-09-01T17:37:15.627Z,0.77
2022-09-01T17:42:33.598Z,1.05
2022-09-01T17:47:57.154Z,1.35
2022-09-01T17:53:11.744Z,1.05
2022-09-01T17:58:31.591Z,0.90
2022-09-01T18:03:46.816Z,1.30
2022-09-01T18:08:54.922Z,1.52
2022-09-01T18:14:06.131Z,1.00
2022-09-01T18:19:17.294Z,1.30
2022-09-01T18:24:27.367Z,1.33
2022-09-01T18:29:32.543Z,1.17
2022-09-01T18:35:02.323Z,1.30
2022-09-01T18:40:17.343Z,1.20
2022-09-01T18:45:33.773Z,1.40
2022-09-01T18:50:48.286Z,1.40
2022-09-01T18:56:01.807Z,1.55
2022-09-01T19:01:08.331Z,1.40
2022-09-01T19:06:29.300Z,1.40
2022-09-01T19:11:47.735Z,1.50
2022-09-01T19:17:05.737Z,1.52
2022-09-01T19:22:18.369Z,1.77
2022-09-01T19:27:25.940Z,1.37
2022-09-01T19:32:33.172Z,1.58
2022-09-01T19:37:36.965Z,1.60
2022-09-01T19:42:44.546Z,1.80
2022-09-01T19:47:57.988Z,1.65
2022-09-01T19:53:08.494Z,1.20
2022-09-01T19:58:17.972Z,1.40
2022-09-01T20:03:29.492Z,1.80
2022-09-01T20:08:38.212Z,1.30
2022-09-01T20:14:04.577Z,1.30
2022-09-01T20:19:16.331Z,1.50
2022-09-01T20:24:34.942Z,1.20
2022-09-01T20:29:46.465Z,1.45
2022-09-01T20:34:55.471Z,1.70
2022-09-01T20:40:01.150Z,1.45
2022-09-01T20:45:12.741Z,1.40
2022-09-01T20:50:19.542Z,1.27
2022-09-01T20:55:27.562Z,1.33
2022-09-01T21:00:36.190Z,1.58
2022-09-01T21:05:49.655Z,1.05
2022-09-01T21:11:01.168Z,1.23
2022-09-01T21:16:11.898Z,0.85
2022-09-01T21:21:26.951Z,1.40
2022-09-01T21:26:31.339Z,0.90
2022-09-01T21:31:35.154Z,1.15
2022-09-01T21:36:40.220Z,1.20
2022-09-01T21:41:43.991Z,1.20
2022-09-01T21:46:48.068Z,1.17
2022-09-01T21:51:54.113Z,1.25
2022-09-01T21:56:57.881Z,1.05
2022-09-01T22:02:01.885Z,1.20
2022-09-01T22:07:16.895Z,1.30
2022-09-01T22:12:20.751Z,1.10
2022-09-01T22:17:24.456Z,1.30
2022-09-01T22:22:29.670Z,1.42
2022-09-01T22:27:33.492Z,1.50
2022-09-01T22:32:39.913Z,0.70
2022-09-01T22:37:45.182Z,1.00
2022-09-01T22:42:49.036Z,1.75
2022-09-01T22:47:52.824Z,1.60
2022-09-01T22:52:57.866Z,1.15
2022-09-01T22:58:01.550Z,1.05
2022-09-01T23:03:05.782Z,1.30
2022-09-01T23:08:10.882Z,0.88
2022-09-01T23:13:15.116Z,1.12
2022-09-01T23:18:19.298Z,1.30
2022-09-01T23:23:24.880Z,1.12
2022-09-01T23:28:29.480Z,0.98
2022-09-01T23:33:33.175Z,1.10
2022-09-01T23:38:39.383Z,1.00
2022-09-01T23:43:44.258Z,1.08
2022-09-01T23:48:48.327Z,1.10
2022-09-01T23:53:53.760Z,1.20
2022-09-01T23:58:59.021Z,1.08
